createdAt,value
2019-04-10T00:00:08.777Z,86495.30
2019-04-10T00:02:35.592Z,86491.34
2019-04-10T00:05:05.169Z,86494.53
2019-04-10T00:07:31.895Z,86488.16
2019-04-10T00:09:59.279Z,86489.46
2019-04-10T00:12:26.035Z,86495.06
2019-04-10T00:14:52.798Z,86488.89
2019-04-10T00:17:20.553Z,86492.27
2019-04-10T00:19:47.744Z,86495.44
2019-04-10T00:22:14.520Z,86490.20
2019-04-10T00:24:41.317Z,86483.10
2019-04-10T00:27:08.058Z,86481.97
2019-04-10T00:29:34.808Z,86485.33
2019-04-10T00:32:02.286Z,86483.27
2019-04-10T00:34:29.678Z,86480.07
2019-04-10T00:36:57.489Z,86484.77
2019-04-10T00:39:24.478Z,86477.81
2019-04-10T00:41:51.356Z,86484.74
2019-04-10T00:44:19.403Z,86478.19
2019-04-10T00:46:46.476Z,86477.44
2019-04-10T00:49:13.532Z,86473.16
2019-04-10T00:51:40.286Z,86472.77
2019-04-10T00:54:07.769Z,86466.22
2019-04-10T00:56:34.803Z,86468.64
2019-04-10T00:59:02.078Z,86468.45
2019-04-10T01:01:29.645Z,86465.83
2019-04-10T01:03:56.689Z,86463.97
2019-04-10T01:06:24.122Z,86467.52
2019-04-10T01:08:51.096Z,86466.38
2019-04-10T01:11:17.792Z,86466.38
2019-04-10T01:14:05.354Z,86463.39
2019-04-10T01:16:32.185Z,86470.69
2019-04-10T01:18:59.501Z,86464.14
2019-04-10T01:21:26.468Z,86461.89
2019-04-10T01:23:53.352Z,86465.09
2019-04-10T01:26:20.928Z,86462.09
2019-04-10T01:28:49.093Z,86463.78
2019-04-10T01:31:17.074Z,86459.27
2019-04-10T01:33:45.900Z,86449.00
2019-04-10T01:36:13.108Z,86454.42
2019-04-10T01:38:39.953Z,86456.66
2019-04-10T01:41:07.660Z,86460.03
2019-04-10T01:43:35.111Z,86457.42
2019-04-10T01:46:02.143Z,86456.09
2019-04-10T01:48:29.888Z,86449.55
2019-04-10T01:50:57.121Z,86448.21
2019-04-10T01:53:23.906Z,86450.10
2019-04-10T01:55:51.381Z,86445.22
2019-04-10T01:58:19.100Z,86443.91
2019-04-10T02:00:46.074Z,86442.62
2019-04-10T02:03:13.876Z,86451.23
2019-04-10T02:05:40.825Z,86449.52
2019-04-10T02:08:10.363Z,86442.42
2019-04-10T02:10:36.401Z,86446.73
2019-04-10T02:13:03.249Z,86447.66
2019-04-10T02:15:30.158Z,86439.63
2019-04-10T02:17:57.099Z,86443.91
2019-04-10T02:20:24.974Z,86442.42
2019-04-10T02:22:51.952Z,86432.30
2019-04-10T02:25:19.850Z,86431.58
2019-04-10T02:27:46.870Z,86429.69
2019-04-10T02:30:16.356Z,86425.77
2019-04-10T02:32:47.317Z,86430.25
2019-04-10T02:35:16.538Z,86428.56
2019-04-10T02:37:41.578Z,86428.91
2019-04-10T02:40:10.112Z,86429.29
2019-04-10T02:42:38.741Z,86426.14
2019-04-10T02:45:06.233Z,86430.06
2019-04-10T02:47:34.592Z,86429.48
2019-04-10T02:50:03.640Z,86431.75
2019-04-10T02:52:30.791Z,86429.30
2019-04-10T02:54:57.941Z,86432.48
2019-04-10T02:57:25.478Z,86431.91
2019-04-10T02:59:53.800Z,86436.80
2019-04-10T03:02:22.057Z,86433.05
2019-04-10T03:04:49.240Z,86429.88
2019-04-10T03:07:17.612Z,86429.50
2019-04-10T03:10:00.599Z,86427.61
2019-04-10T03:12:14.568Z,86425.38
2019-04-10T03:14:45.169Z,86422.55
2019-04-10T03:17:10.469Z,86421.59
2019-04-10T03:19:37.913Z,86423.48
2019-04-10T03:22:07.269Z,86424.39
2019-04-10T03:24:33.406Z,86428.34
2019-04-10T03:27:00.131Z,86424.04
2019-04-10T03:29:27.430Z,86417.13
2019-04-10T03:31:56.483Z,86418.23
2019-04-10T03:34:25.351Z,86418.78
2019-04-10T03:36:51.735Z,86415.98
2019-04-10T03:39:18.586Z,86415.23
2019-04-10T03:41:45.479Z,86423.84
2019-04-10T03:44:12.465Z,86420.29
2019-04-10T03:46:40.173Z,86422.70
2019-04-10T03:49:07.523Z,86422.91
2019-04-10T03:51:34.314Z,86418.23
2019-04-10T03:54:01.047Z,86421.60
2019-04-10T03:56:27.835Z,86422.70
2019-04-10T03:58:54.581Z,86427.01
2019-04-10T04:01:22.886Z,86425.87
2019-04-10T04:03:50.070Z,86425.53
2019-04-10T04:06:17.848Z,86420.47
2019-04-10T04:08:45.809Z,86429.42
2019-04-10T04:11:13.461Z,86425.53
2019-04-10T04:13:40.335Z,86413.75
2019-04-10T04:16:07.214Z,86413.92
2019-04-10T04:18:33.937Z,86413.92
2019-04-10T04:21:01.526Z,86411.11
2019-04-10T04:23:28.489Z,86410.17
2019-04-10T04:25:55.241Z,86407.56
2019-04-10T04:28:21.954Z,86410.16
2019-04-10T04:30:51.718Z,86406.23
2019-04-10T04:33:17.286Z,86409.77
2019-04-10T04:35:44.167Z,86409.02
2019-04-10T04:38:11.379Z,86414.05
2019-04-10T04:40:38.175Z,86418.33
2019-04-10T04:43:05.657Z,86413.65
2019-04-10T04:45:33.437Z,86416.09
2019-04-10T04:48:00.235Z,86411.59
2019-04-10T04:50:27.105Z,86415.13
2019-04-10T04:52:53.814Z,86417.58
2019-04-10T04:55:20.622Z,86414.03
2019-04-10T04:57:47.385Z,86420.95
2019-04-10T05:00:15.254Z,86421.84
2019-04-10T05:02:42.672Z,86420.34
2019-04-10T05:05:09.658Z,86419.41
2019-04-10T05:07:37.588Z,86425.39
2019-04-10T05:10:09.089Z,86426.32
2019-04-10T05:12:36.020Z,86427.45
2019-04-10T05:15:04.924Z,86425.39
2019-04-10T05:17:33.167Z,86423.53
2019-04-10T05:20:00.848Z,86428.59
2019-04-10T05:22:27.683Z,86424.67
2019-04-10T05:24:54.462Z,86428.63
2019-04-10T05:27:21.175Z,86432.02
2019-04-10T05:29:47.987Z,86431.23
2019-04-10T05:32:15.867Z,86432.02
2019-04-10T05:34:43.352Z,86435.95
2019-04-10T05:37:11.423Z,86430.89
2019-04-10T05:39:43.383Z,86436.33
2019-04-10T05:42:06.881Z,86435.95
2019-04-10T05:44:34.051Z,86431.30
2019-04-10T05:47:01.170Z,86437.11
2019-04-10T05:49:28.914Z,86436.55
2019-04-10T05:51:56.414Z,86435.82
2019-04-10T05:54:24.595Z,86426.66
2019-04-10T05:56:52.526Z,86429.67
2019-04-10T05:59:19.606Z,86425.92
2019-04-10T06:01:46.463Z,86427.08
2019-04-10T06:04:13.369Z,86428.58
2019-04-10T06:06:40.904Z,86426.16
2019-04-10T06:09:08.776Z,86425.39
2019-04-10T06:11:35.801Z,86424.66
2019-04-10T06:14:03.220Z,86424.30
2019-04-10T06:16:30.286Z,86421.88
2019-04-10T06:18:57.605Z,86426.55
2019-04-10T06:21:25.124Z,86425.98
2019-04-10T06:23:51.921Z,86425.06
2019-04-10T06:26:19.864Z,86423.77
2019-04-10T06:28:46.932Z,86421.50
2019-04-10T06:31:14.639Z,86418.89
2019-04-10T06:33:42.487Z,86409.55
2019-04-10T06:36:09.458Z,86419.09
2019-04-10T06:38:37.259Z,86423.39
2019-04-10T06:41:04.138Z,86423.39
2019-04-10T06:43:30.935Z,86416.45
2019-04-10T06:45:57.920Z,86419.09
2019-04-10T06:48:25.909Z,86415.90
2019-04-10T06:50:53.506Z,86419.63
2019-04-10T06:53:20.585Z,86417.02
2019-04-10T06:55:47.464Z,86416.44
2019-04-10T06:58:14.193Z,86418.70
2019-04-10T07:00:41.060Z,86416.27
2019-04-10T07:03:08.580Z,86415.13
2019-04-10T07:05:41.361Z,86420.73
2019-04-10T07:08:12.455Z,86418.86
2019-04-10T07:10:45.902Z,86422.05
2019-04-10T07:13:04.278Z,86420.73
2019-04-10T07:15:29.721Z,86420.53
2019-04-10T07:17:56.528Z,86417.53
2019-04-10T07:20:24.094Z,86421.27
2019-04-10T07:22:51.272Z,86421.46
2019-04-10T07:25:19.526Z,86420.72
2019-04-10T07:27:46.353Z,86416.39
2019-04-10T07:30:14.002Z,86420.91
2019-04-10T07:32:45.615Z,86418.64
2019-04-10T07:35:10.926Z,86428.38
2019-04-10T07:37:38.297Z,86431.92
2019-04-10T07:40:07.937Z,86423.69
2019-04-10T07:42:38.454Z,86430.05
2019-04-10T07:45:06.222Z,86420.11
2019-04-10T07:47:32.955Z,86425.15
2019-04-10T07:50:01.706Z,86423.63
2019-04-10T07:52:29.476Z,86416.67
2019-04-10T07:54:56.655Z,86419.64
2019-04-10T07:57:24.510Z,86422.61
2019-04-10T07:59:52.569Z,86428.95
2019-04-10T08:02:19.459Z,86425.38
2019-04-10T08:04:47.330Z,86425.93
2019-04-10T08:07:24.906Z,86430.43
2019-04-10T08:09:43.097Z,86426.69
2019-04-10T08:12:11.342Z,86433.59
2019-04-10T08:14:40.634Z,86432.11
2019-04-10T08:17:07.967Z,86431.52
2019-04-10T08:19:35.083Z,86435.69
2019-04-10T08:22:03.401Z,86437.55
2019-04-10T08:24:30.387Z,86435.91
2019-04-10T08:26:57.177Z,86443.47
2019-04-10T08:29:23.973Z,86443.80
2019-04-10T08:31:50.822Z,86444.92
2019-04-10T08:34:17.540Z,86446.83
2019-04-10T08:36:44.278Z,86445.46
2019-04-10T08:39:11.393Z,86447.53
2019-04-10T08:41:38.077Z,86442.05
2019-04-10T08:44:04.808Z,86440.73
2019-04-10T08:46:31.669Z,86440.71
2019-04-10T08:48:58.410Z,86442.78
2019-04-10T08:51:25.677Z,86440.69
2019-04-10T08:53:55.230Z,86447.42
2019-04-10T08:56:22.540Z,86447.05
2019-04-10T08:58:49.756Z,86450.80
2019-04-10T09:01:17.426Z,86447.22
2019-04-10T09:03:44.317Z,86444.36
2019-04-10T09:06:11.339Z,86444.89
2019-04-10T09:08:39.095Z,86446.36
2019-04-10T09:11:07.021Z,86443.34
2019-04-10T09:13:34.711Z,86442.55
2019-04-10T09:16:02.523Z,86447.80
2019-04-10T09:18:29.536Z,86447.97
2019-04-10T09:20:57.294Z,86448.92
2019-04-10T09:23:33.094Z,86444.97
2019-04-10T09:25:52.666Z,86444.25
2019-04-10T09:28:19.446Z,86441.98
2019-04-10T09:30:46.184Z,86441.27
2019-04-10T09:33:19.741Z,86444.78
2019-04-10T09:35:41.516Z,86442.91
2019-04-10T09:38:08.465Z,86438.20
2019-04-10T09:40:36.250Z,86444.22
2019-04-10T09:43:03.083Z,86440.28
2019-04-10T09:45:30.652Z,86446.52
2019-04-10T09:47:57.969Z,86440.87
2019-04-10T09:50:26.117Z,86447.41
2019-04-10T09:52:52.977Z,86448.16
2019-04-10T09:55:20.120Z,86442.54
2019-04-10T09:57:47.590Z,86448.52
2019-04-10T10:00:15.622Z,86448.33
2019-04-10T10:02:42.350Z,86438.59
2019-04-10T10:05:10.429Z,86447.84
2019-04-10T10:07:37.503Z,86447.48
2019-04-10T10:10:06.697Z,86447.48
2019-04-10T10:12:34.270Z,86450.63
2019-04-10T10:15:02.415Z,86447.41
2019-04-10T10:17:29.321Z,86451.16
2019-04-10T10:19:56.047Z,86451.16
2019-04-10T10:22:23.163Z,86451.35
2019-04-10T10:24:50.959Z,86449.68
2019-04-10T10:27:17.875Z,86444.58
2019-04-10T10:29:44.702Z,86446.58
2019-04-10T10:32:11.550Z,86446.56
2019-04-10T10:34:38.720Z,86446.12
2019-04-10T10:37:06.341Z,86442.48
2019-04-10T10:39:33.093Z,86444.27
2019-04-10T10:42:00.239Z,86447.41
2019-04-10T10:44:27.091Z,86436.98
2019-04-10T10:46:53.805Z,86443.12
2019-04-10T10:49:20.693Z,86440.38
2019-04-10T10:51:47.440Z,86435.11
2019-04-10T10:54:14.210Z,86436.99
2019-04-10T10:56:41.037Z,86437.47
2019-04-10T10:59:07.782Z,86429.16
2019-04-10T11:01:34.504Z,86430.22
2019-04-10T11:04:01.286Z,86430.14
2019-04-10T11:06:28.034Z,86427.84
2019-04-10T11:08:55.544Z,86421.98
2019-04-10T11:11:22.650Z,86430.70
2019-04-10T11:13:50.723Z,86426.20
2019-04-10T11:16:17.863Z,86423.82
2019-04-10T11:18:44.776Z,86425.30
2019-04-10T11:21:12.746Z,86425.06
2019-04-10T11:23:39.902Z,86426.90
2019-04-10T11:26:06.792Z,86417.59
2019-04-10T11:28:33.799Z,86422.22
2019-04-10T11:31:01.700Z,86423.77
2019-04-10T11:33:28.529Z,86424.58
2019-04-10T11:35:55.310Z,86420.02
2019-04-10T11:38:22.171Z,86419.19
2019-04-10T11:40:49.692Z,86420.29
2019-04-10T11:43:16.753Z,86419.94
2019-04-10T11:45:51.251Z,86420.55
2019-04-10T11:48:13.493Z,86416.36
2019-04-10T11:50:43.833Z,86424.33
2019-04-10T11:53:10.460Z,86412.34
2019-04-10T11:55:43.733Z,86415.38
2019-04-10T11:58:07.831Z,86410.59
2019-04-10T12:03:10.532Z,86410.76
2019-04-10T12:05:41.152Z,86408.14
2019-04-10T12:13:05.975Z,86404.67
2019-04-10T12:15:32.787Z,86401.76
2019-04-10T12:18:00.284Z,86398.36
2019-04-10T12:20:27.398Z,86392.39
2019-04-10T12:22:54.618Z,86383.53
2019-04-10T12:25:22.869Z,86387.25
2019-04-10T12:27:49.961Z,86384.19
2019-04-10T12:30:19.376Z,86386.02
2019-04-10T12:32:47.524Z,86385.42
2019-04-10T12:35:15.124Z,86385.80
2019-04-10T12:37:43.296Z,86381.88
2019-04-10T12:40:10.497Z,86375.84
2019-04-10T12:42:38.618Z,86378.63
2019-04-10T12:45:06.648Z,86382.36
2019-04-10T12:47:34.221Z,86384.50
2019-04-10T12:50:01.481Z,86380.09
2019-04-10T12:52:28.342Z,86384.52
2019-04-10T12:54:55.298Z,86386.37
2019-04-10T12:57:23.075Z,86388.09
2019-04-10T12:59:50.025Z,86379.08
2019-04-10T13:02:16.766Z,86381.99
2019-04-10T13:04:44.836Z,86383.84
2019-04-10T13:07:11.732Z,86375.01
2019-04-10T13:09:38.515Z,86379.87
2019-04-10T13:12:05.413Z,86369.39
2019-04-10T13:14:32.787Z,86365.36
2019-04-10T13:17:00.581Z,86366.11
2019-04-10T13:19:27.526Z,86364.79
2019-04-10T13:21:54.259Z,86365.59
2019-04-10T13:24:21.564Z,86367.42
2019-04-10T13:26:48.697Z,86360.94
2019-04-10T13:29:16.220Z,86364.27
2019-04-10T13:31:43.100Z,86367.81
2019-04-10T13:34:10.909Z,86364.67
2019-04-10T13:36:37.903Z,86364.56
2019-04-10T13:39:06.559Z,86357.80
2019-04-10T13:41:34.509Z,86360.84
2019-04-10T13:44:02.364Z,86360.75
2019-04-10T13:46:29.254Z,86358.83
2019-04-10T13:48:55.992Z,86361.88
2019-04-10T13:51:23.425Z,86352.53
2019-04-10T13:53:50.229Z,86356.60
2019-04-10T13:56:17.252Z,86355.03
2019-04-10T13:58:44.589Z,86355.68
2019-04-10T14:01:11.369Z,86345.70
2019-04-10T14:03:40.078Z,86349.59
2019-04-10T14:06:07.497Z,86349.70
2019-04-10T14:08:56.031Z,86346.37
2019-04-10T14:11:03.071Z,86339.34
2019-04-10T14:13:29.800Z,86342.37
2019-04-10T14:15:57.988Z,86343.53
2019-04-10T14:18:24.917Z,86342.07
2019-04-10T14:20:51.751Z,86346.41
2019-04-10T14:23:18.473Z,86354.80
2019-04-10T14:25:45.279Z,86350.93
2019-04-10T14:28:13.048Z,86353.03
2019-04-10T14:31:01.995Z,86358.17
2019-04-10T14:33:28.807Z,86355.42
2019-04-10T14:35:55.824Z,86349.73
2019-04-10T14:38:23.264Z,86346.83
2019-04-10T14:40:50.210Z,86347.17
2019-04-10T14:43:17.019Z,86347.41
2019-04-10T14:45:43.898Z,86346.98
2019-04-10T14:48:10.654Z,86346.66
2019-04-10T14:50:37.858Z,86343.11
2019-04-10T14:53:05.563Z,86334.74
2019-04-10T14:55:33.376Z,86338.80
2019-04-10T14:58:01.256Z,86334.84
2019-04-10T15:00:28.561Z,86335.00
2019-04-10T15:02:55.949Z,86332.00
2019-04-10T15:05:25.889Z,86330.47
2019-04-10T15:07:53.301Z,86321.67
2019-04-10T15:10:20.148Z,86331.58
2019-04-10T15:12:47.930Z,86324.26
2019-04-10T15:15:14.672Z,86331.81
2019-04-10T15:17:42.215Z,86330.55
2019-04-10T15:20:09.042Z,86328.88
2019-04-10T15:22:35.872Z,86332.83
2019-04-10T15:25:05.407Z,86330.63
2019-04-10T15:27:33.290Z,86330.31
2019-04-10T15:30:00.184Z,86333.84
2019-04-10T15:32:26.919Z,86334.47
2019-04-10T15:34:53.720Z,86331.58
2019-04-10T15:37:20.768Z,86334.58
2019-04-10T15:39:47.564Z,86335.42
2019-04-10T15:42:14.320Z,86341.03
2019-04-10T15:44:41.117Z,86338.04
2019-04-10T15:47:16.157Z,86336.63
2019-04-10T15:49:36.653Z,86337.63
2019-04-10T15:52:03.776Z,86341.69
2019-04-10T15:54:30.504Z,86342.37
2019-04-10T15:56:58.283Z,86347.30
2019-04-10T15:59:25.312Z,86347.99
2019-04-10T16:01:52.096Z,86347.23
2019-04-10T16:04:19.138Z,86350.55
2019-04-10T16:06:45.957Z,86346.92
2019-04-10T16:09:14.786Z,86339.96
2019-04-10T16:11:42.116Z,86346.23
2019-04-10T16:14:17.929Z,86351.78
2019-04-10T16:16:37.398Z,86352.78
2019-04-10T16:19:04.282Z,86348.52
2019-04-10T16:21:31.881Z,86347.91
2019-04-10T16:23:58.679Z,86349.55
2019-04-10T16:26:25.505Z,86352.84
2019-04-10T16:28:52.239Z,86348.77
2019-04-10T16:31:19.389Z,86350.92
2019-04-10T16:33:46.312Z,86351.11
2019-04-10T16:36:13.011Z,86354.22
2019-04-10T16:38:40.656Z,86355.44
2019-04-10T16:41:08.215Z,86363.39
2019-04-10T16:43:36.191Z,86364.69
2019-04-10T16:46:03.032Z,86364.01
2019-04-10T16:48:29.819Z,86368.34
2019-04-10T16:50:57.177Z,86370.56
2019-04-10T16:53:26.152Z,86367.36
2019-04-10T16:55:53.388Z,86362.59
2019-04-10T16:58:20.139Z,86369.14
2019-04-10T17:00:47.503Z,86375.04
2019-04-10T17:03:15.510Z,86376.88
2019-04-10T17:05:42.463Z,86379.17
2019-04-10T17:08:09.781Z,86377.85
2019-04-10T17:10:36.691Z,86381.83
2019-04-10T17:13:04.443Z,86384.98
2019-04-10T17:15:32.173Z,86389.38
2019-04-10T17:17:59.236Z,86390.75
2019-04-10T17:20:26.626Z,86395.27
2019-04-10T17:22:54.233Z,86390.15
2019-04-10T17:25:22.121Z,86398.41
2019-04-10T17:27:50.056Z,86394.70
2019-04-10T17:30:17.792Z,86399.24
2019-04-10T17:32:44.735Z,86406.27
2019-04-10T17:35:11.807Z,86402.53
2019-04-10T17:37:38.546Z,86408.94
2019-04-10T17:40:09.034Z,86400.95
2019-04-10T17:42:37.680Z,86405.48
2019-04-10T17:45:07.711Z,86404.44
2019-04-10T17:47:34.409Z,86405.45
2019-04-10T17:50:01.325Z,86409.48
2019-04-10T17:52:28.045Z,86418.20
2019-04-10T17:54:55.444Z,86420.36
2019-04-10T17:57:33.723Z,86415.86
2019-04-10T17:59:51.182Z,86416.27
2019-04-10T18:02:17.975Z,86416.14
2019-04-10T18:04:44.821Z,86427.63
2019-04-10T18:07:12.154Z,86428.46
2019-04-10T18:09:39.024Z,86426.78
2019-04-10T18:12:06.029Z,86430.91
2019-04-10T18:14:36.153Z,86432.78
2019-04-10T18:17:02.549Z,86434.19
2019-04-10T18:19:30.249Z,86438.55
2019-04-10T18:21:58.122Z,86446.66
2019-04-10T18:24:26.207Z,86447.61
2019-04-10T18:26:54.311Z,86446.66
2019-04-10T18:29:21.594Z,86449.73
2019-04-10T18:31:49.374Z,86453.67
2019-04-10T18:34:17.284Z,86459.09
2019-04-10T18:36:46.401Z,86461.77
2019-04-10T18:39:14.019Z,86465.72
2019-04-10T18:41:42.672Z,86470.62
2019-04-10T18:44:09.424Z,86475.73
2019-04-10T18:46:37.583Z,86480.03
2019-04-10T18:49:05.327Z,86478.92
2019-04-10T18:51:34.001Z,86481.40
2019-04-10T18:54:01.724Z,86478.60
2019-04-10T18:56:29.233Z,86487.09
2019-04-10T18:58:56.299Z,86485.94
2019-04-10T19:01:23.134Z,86485.58
2019-04-10T19:03:56.104Z,86491.23
2019-04-10T19:06:18.420Z,86499.52
2019-04-10T19:08:46.211Z,86496.92
2019-04-10T19:11:21.100Z,86501.23
2019-04-10T19:13:42.473Z,86505.77
2019-04-10T19:16:09.234Z,86510.84
2019-04-10T19:18:35.966Z,86506.36
2019-04-10T19:21:03.242Z,86511.06
2019-04-10T19:23:30.798Z,86514.22
2019-04-10T19:25:58.785Z,86520.43
2019-04-10T19:28:33.364Z,86521.91
2019-04-10T19:31:07.993Z,86524.73
2019-04-10T19:33:24.015Z,86517.97
2019-04-10T19:35:50.954Z,86519.88
2019-04-10T19:38:18.897Z,86519.31
2019-04-10T19:40:46.039Z,86523.13
2019-04-10T19:43:13.767Z,86520.47
2019-04-10T19:45:41.782Z,86525.89
2019-04-10T19:48:09.012Z,86527.03
2019-04-10T19:50:35.843Z,86527.43
2019-04-10T19:53:02.672Z,86524.80
2019-04-10T19:55:29.621Z,86527.98
2019-04-10T19:57:57.406Z,86525.55
2019-04-10T20:00:24.286Z,86525.39
2019-04-10T20:02:51.136Z,86524.27
2019-04-10T20:05:37.603Z,86527.85
2019-04-10T20:08:05.198Z,86525.42
2019-04-10T20:10:33.020Z,86526.73
2019-04-10T20:12:59.913Z,86533.11
2019-04-10T20:15:26.789Z,86536.32
2019-04-10T20:17:54.547Z,86538.95
2019-04-10T20:20:21.501Z,86543.11
2019-04-10T20:22:48.341Z,86539.90
2019-04-10T20:25:15.085Z,86541.60
2019-04-10T20:27:42.491Z,86544.62
2019-04-10T20:30:09.981Z,86538.78
2019-04-10T20:32:39.831Z,86540.66
2019-04-10T20:35:07.700Z,86535.23
2019-04-10T20:37:34.725Z,86541.26
2019-04-10T20:40:01.471Z,86538.83
2019-04-10T20:42:28.188Z,86543.52
2019-04-10T20:44:54.967Z,86542.02
2019-04-10T20:47:22.608Z,86537.12
2019-04-10T20:49:49.469Z,86545.95
2019-04-10T20:52:16.208Z,86544.45
2019-04-10T20:54:42.946Z,86543.50
2019-04-10T20:57:10.848Z,86541.63
2019-04-10T20:59:37.836Z,86545.38
2019-04-10T21:02:04.570Z,86547.44
2019-04-10T21:04:31.791Z,86548.92
2019-04-10T21:06:58.650Z,86549.68
2019-04-10T21:09:25.809Z,86549.31
2019-04-10T21:12:03.199Z,86551.80
2019-04-10T21:14:21.353Z,86549.92
2019-04-10T21:16:48.075Z,86549.91
2019-04-10T21:19:14.961Z,86543.93
2019-04-10T21:21:41.716Z,86542.22
2019-04-10T21:24:09.239Z,86538.09
2019-04-10T21:26:36.707Z,86542.99
2019-04-10T21:29:04.453Z,86544.14
2019-04-10T21:31:31.805Z,86545.08
2019-04-10T21:33:59.038Z,86543.02
2019-04-10T21:36:26.263Z,86540.97
2019-04-10T21:38:53.015Z,86536.85
2019-04-10T21:41:20.035Z,86541.73
2019-04-10T21:43:47.381Z,86538.91
2019-04-10T21:46:14.402Z,86536.67
2019-04-10T21:48:42.026Z,86535.55
2019-04-10T21:51:08.844Z,86533.29
2019-04-10T21:53:37.203Z,86534.05
2019-04-10T21:56:04.231Z,86533.48
2019-04-10T21:58:30.932Z,86535.74
2019-04-10T22:00:57.718Z,86529.56
2019-04-10T22:03:25.298Z,86536.86
2019-04-10T22:05:53.104Z,86530.31
2019-04-10T22:08:21.129Z,86529.02
2019-04-10T22:10:48.273Z,86531.25
2019-04-10T22:13:15.522Z,86531.82
2019-04-10T22:15:42.561Z,86531.27
2019-04-10T22:18:09.464Z,86534.46
2019-04-10T22:20:36.259Z,86534.09
2019-04-10T22:23:04.055Z,86534.84
2019-04-10T22:25:31.913Z,86533.16
2019-04-10T22:27:58.875Z,86534.47
2019-04-10T22:30:25.595Z,86529.22
2019-04-10T22:32:53.366Z,86536.54
2019-04-10T22:35:21.554Z,86536.17
2019-04-10T22:37:48.358Z,86533.55
2019-04-10T22:40:15.340Z,86532.22
2019-04-10T22:42:46.233Z,86532.59
2019-04-10T22:45:26.163Z,86526.80
2019-04-10T22:47:54.269Z,86524.17
2019-04-10T22:50:22.299Z,86526.23
2019-04-10T22:52:49.172Z,86528.48
2019-04-10T22:55:15.944Z,86524.72
2019-04-10T22:57:42.657Z,86520.38
2019-04-10T23:00:11.730Z,86520.94
2019-04-10T23:02:38.441Z,86529.76
2019-04-10T23:05:05.274Z,86517.77
2019-04-10T23:07:32.068Z,86523.75
2019-04-10T23:09:58.807Z,86523.23
2019-04-10T23:12:26.482Z,86518.16
2019-04-10T23:14:53.413Z,86518.55
2019-04-10T23:17:21.012Z,86520.02
2019-04-10T23:19:47.800Z,86523.23
2019-04-10T23:22:14.573Z,86521.88
2019-04-10T23:24:41.271Z,86517.02
2019-04-10T23:27:07.982Z,86523.02
2019-04-10T23:29:35.989Z,86517.59
2019-04-10T23:32:03.734Z,86521.53
2019-04-10T23:34:30.578Z,86519.09
2019-04-10T23:36:58.315Z,86513.84
2019-04-10T23:39:25.194Z,86518.91
2019-04-10T23:41:52.419Z,86520.02
2019-04-10T23:44:19.157Z,86516.27
2019-04-10T23:46:45.922Z,86507.08
2019-04-10T23:49:13.050Z,86519.09
2019-04-10T23:51:40.021Z,86517.78
2019-04-10T23:54:06.921Z,86517.22
2019-04-10T23:56:33.790Z,86512.14
2019-04-10T23:59:00.521Z,86511.22
